F/V Argentario — FGPE — position and weather

sailwx.info

Track history (hours):
 
Tides and Currents Weather Stations Pressure Air Temp Water Temp Dewpoint Dewpoint Depression Visibility Wind Speed Wind Dir Waves Ship Positions

F/V Argentario

Last reported at 2018-Jul-19 19:16 UTC. Time now 2018-Jul-19 23:07 UTC.
Position N 46°37' W 002°48'.

Length 22 m; draft 3.4 m.

Type: Fishing. MMSI: 228975000.

Date/timePositionNaut miles runAvg speedWind from/ knotsBaromVisibWave heightAir tempDewpointWater temp
2018-Jul-19 19:16N 46°37' W 002°48'2 9.5
2018-Jul-19 19:01N 46°38' W 002°45'5 9.2
2018-Jul-19 18:30N 46°40' W 002°39'5 9.5
2018-Jul-19 18:00N 46°42' W 002°33'5 9.6
2018-Jul-19 17:30N 46°44' W 002°27'4 8.4
2018-Jul-19 17:01N 46°44' W 002°21'1 1.7
2018-Jul-19 16:30N 46°44' W 002°21'2 4.0
2018-Jul-19 16:00N 46°45' W 002°23'510.1
2018-Jul-19 15:30N 46°46' W 002°30'510.2
2018-Jul-19 15:00N 46°47' W 002°37'6 9.9
2018-Jul-19 14:27N 46°48' W 002°45'34 3.8
2018-Jul-19 05:30N 46°57' W 003°34'1 0.1
2018-Jul-18 18:28N 46°56' W 003°35'  
2018-Jul-12 07:21N 47°06' W 003°56'2 5.1
2018-Jul-12 06:56N 47°07' W 003°59'1 1.3
2018-Jul-12 05:53N 47°07' W 004°01'1 0.8
2018-Jul-12 04:21N 47°07' W 003°60'2 1.1
2018-Jul-12 02:43N 47°07' W 004°02'1 0.4
2018-Jul-12 00:38N 47°06' W 004°01'0 0.1
2018-Jul-12 00:24N 47°06' W 004°01'0 0.0
2018-Jul-11 23:59N 47°06' W 004°01'3 0.2
2018-Jul-11 06:29N 47°07' W 004°05'0 1.0
2018-Jul-11 06:00N 47°07' W 004°06'2 4.0
2018-Jul-11 05:30N 47°08' W 004°03'0 0.1
2018-Jul-11 04:58N 47°08' W 004°03'0 0.0
2018-Jul-11 04:16N 47°08' W 004°03'0 0.0
2018-Jul-11 03:54N 47°08' W 004°03'0 0.0
2018-Jul-11 03:30N 47°08' W 004°03'0 0.0
2018-Jul-11 03:00N 47°08' W 004°03'0 0.1
2018-Jul-11 02:30N 47°08' W 004°03'0 0.2
2018-Jul-11 01:58N 47°08' W 004°03'0 0.1
2018-Jul-11 01:29N 47°08' W 004°03'0 0.1
2018-Jul-11 01:00N 47°08' W 004°03'0 0.0
2018-Jul-11 00:31N 47°08' W 004°03'0 0.1
2018-Jul-10 20:54N 47°08' W 004°03'0 0.1
2018-Jul-10 20:03N 47°08' W 004°03'0 0.0
2018-Jul-10 20:00N 47°08' W 004°03'0 0.1
2018-Jul-10 19:30N 47°08' W 004°03'0 0.0
2018-Jul-10 18:57N 47°08' W 004°03'0 0.0
2018-Jul-10 18:30N 47°08' W 004°03'0 0.0
2018-Jul-10 18:00N 47°08' W 004°03'0 0.1
2018-Jul-10 17:29N 47°08' W 004°03'0 0.0
2018-Jul-10 17:00N 47°08' W 004°03'0 0.1
2018-Jul-10 16:30N 47°08' W 004°03'0 0.0
2018-Jul-10 16:01N 47°08' W 004°03'0 0.0
2018-Jul-10 15:30N 47°08' W 004°03'0 0.1
2018-Jul-10 15:00N 47°08' W 004°03'0 0.1
2018-Jul-10 14:30N 47°08' W 004°03'0 0.1
2018-Jul-10 14:00N 47°08' W 004°03'0 0.0
2018-Jul-10 13:17N 47°08' W 004°03'2 1.4
2018-Jul-10 12:09N 47°08' W 004°00'2 5.3
2018-Jul-10 11:44N 47°08' W 003°57'2 8.6
2018-Jul-10 11:30N 47°09' W 003°59'2 3.1
2018-Jul-10 10:57N 47°10' W 004°01'1 1.1
2018-Jul-10 10:28N 47°10' W 004°00'1 1.2
2018-Jul-10 09:47N 47°10' W 003°59'1 1.6
2018-Jul-10 09:21N 47°10' W 003°58'1 1.6
2018-Jul-10 09:00N 47°10' W 003°57'0 0.8
2018-Jul-10 08:31N 47°10' W 003°57'0 0.9
2018-Jul-10 08:00N 47°10' W 003°58'0 0.9
2018-Jul-10 07:30N 47°10' W 003°59'1 1.0
2018-Jul-10 07:00N 47°10' W 003°60'1 1.1
2018-Jul-10 06:30N 47°10' W 004°00'1 1.1
2018-Jul-10 05:46N 47°10' W 004°01'0 1.0
2018-Jul-10 05:30N 47°09' W 004°02'1 1.3
2018-Jul-10 05:00N 47°10' W 004°02'2 4.2
2018-Jul-10 04:30N 47°12' W 004°04'5 4.2
2018-Jul-10 03:26N 47°16' W 004°06'2 4.5
2018-Jul-10 03:00N 47°18' W 004°07'2 4.6
2018-Jul-10 02:30N 47°20' W 004°08'2 4.7
2018-Jul-10 02:00N 47°22' W 004°09'3 4.8
2018-Jul-10 01:29N 47°25' W 004°10'2 4.7
2018-Jul-10 01:00N 47°27' W 004°10'2 4.5
2018-Jul-10 00:28N 47°30' W 004°11'2 4.4
2018-Jul-10 00:00N 47°31' W 004°12'2 4.4
2018-Jul-09 23:27N 47°34' W 004°13'2 4.4
2018-Jul-09 22:56N 47°36' W 004°14'4 4.3
2018-Jul-09 21:54N 47°40' W 004°15'  
Track history (hours):
 
Tides and Currents Weather Stations Pressure Air Temp Water Temp Dewpoint Dewpoint Depression Visibility Wind Speed Wind Dir Waves Ship Positions

F/V Argentario

Last reported at 2018-Jul-19 19:16 UTC. Time now 2018-Jul-19 23:07 UTC.
Position N 46°37' W 002°48'.

Length 22 m; draft 3.4 m.

Type: Fishing. MMSI: 228975000.

Date/timePositionNaut miles runAvg speedWind from/ knotsBaromVisibWave heightAir tempDewpointWater temp
2018-Jul-19 19:16N 46°37' W 002°48'2 9.5
2018-Jul-19 19:01N 46°38' W 002°45'5 9.2
2018-Jul-19 18:30N 46°40' W 002°39'5 9.5
2018-Jul-19 18:00N 46°42' W 002°33'5 9.6
2018-Jul-19 17:30N 46°44' W 002°27'4 8.4
2018-Jul-19 17:01N 46°44' W 002°21'1 1.7
2018-Jul-19 16:30N 46°44' W 002°21'2 4.0
2018-Jul-19 16:00N 46°45' W 002°23'510.1
2018-Jul-19 15:30N 46°46' W 002°30'510.2
2018-Jul-19 15:00N 46°47' W 002°37'6 9.9
2018-Jul-19 14:27N 46°48' W 002°45'34 3.8
2018-Jul-19 05:30N 46°57' W 003°34'1 0.1
2018-Jul-18 18:28N 46°56' W 003°35'  
2018-Jul-12 07:21N 47°06' W 003°56'2 5.1
2018-Jul-12 06:56N 47°07' W 003°59'1 1.3
2018-Jul-12 05:53N 47°07' W 004°01'1 0.8
2018-Jul-12 04:21N 47°07' W 003°60'2 1.1
2018-Jul-12 02:43N 47°07' W 004°02'1 0.4
2018-Jul-12 00:38N 47°06' W 004°01'0 0.1
2018-Jul-12 00:24N 47°06' W 004°01'0 0.0
2018-Jul-11 23:59N 47°06' W 004°01'3 0.2
2018-Jul-11 06:29N 47°07' W 004°05'0 1.0
2018-Jul-11 06:00N 47°07' W 004°06'2 4.0
2018-Jul-11 05:30N 47°08' W 004°03'0 0.1
2018-Jul-11 04:58N 47°08' W 004°03'0 0.0
2018-Jul-11 04:16N 47°08' W 004°03'0 0.0
2018-Jul-11 03:54N 47°08' W 004°03'0 0.0
2018-Jul-11 03:30N 47°08' W 004°03'0 0.0
2018-Jul-11 03:00N 47°08' W 004°03'0 0.1
2018-Jul-11 02:30N 47°08' W 004°03'0 0.2
2018-Jul-11 01:58N 47°08' W 004°03'0 0.1
2018-Jul-11 01:29N 47°08' W 004°03'0 0.1
2018-Jul-11 01:00N 47°08' W 004°03'0 0.0
2018-Jul-11 00:31N 47°08' W 004°03'0 0.1
2018-Jul-10 20:54N 47°08' W 004°03'0 0.1
2018-Jul-10 20:03N 47°08' W 004°03'0 0.0
2018-Jul-10 20:00N 47°08' W 004°03'0 0.1
2018-Jul-10 19:30N 47°08' W 004°03'0 0.0
2018-Jul-10 18:57N 47°08' W 004°03'0 0.0
2018-Jul-10 18:30N 47°08' W 004°03'0 0.0
2018-Jul-10 18:00N 47°08' W 004°03'0 0.1
2018-Jul-10 17:29N 47°08' W 004°03'0 0.0
2018-Jul-10 17:00N 47°08' W 004°03'0 0.1
2018-Jul-10 16:30N 47°08' W 004°03'0 0.0
2018-Jul-10 16:01N 47°08' W 004°03'0 0.0
2018-Jul-10 15:30N 47°08' W 004°03'0 0.1
2018-Jul-10 15:00N 47°08' W 004°03'0 0.1
2018-Jul-10 14:30N 47°08' W 004°03'0 0.1
2018-Jul-10 14:00N 47°08' W 004°03'0 0.0
2018-Jul-10 13:17N 47°08' W 004°03'2 1.4
2018-Jul-10 12:09N 47°08' W 004°00'2 5.3
2018-Jul-10 11:44N 47°08' W 003°57'2 8.6
2018-Jul-10 11:30N 47°09' W 003°59'2 3.1
2018-Jul-10 10:57N 47°10' W 004°01'1 1.1
2018-Jul-10 10:28N 47°10' W 004°00'1 1.2
2018-Jul-10 09:47N 47°10' W 003°59'1 1.6
2018-Jul-10 09:21N 47°10' W 003°58'1 1.6
2018-Jul-10 09:00N 47°10' W 003°57'0 0.8
2018-Jul-10 08:31N 47°10' W 003°57'0 0.9
2018-Jul-10 08:00N 47°10' W 003°58'0 0.9
2018-Jul-10 07:30N 47°10' W 003°59'1 1.0
2018-Jul-10 07:00N 47°10' W 003°60'1 1.1
2018-Jul-10 06:30N 47°10' W 004°00'1 1.1
2018-Jul-10 05:46N 47°10' W 004°01'0 1.0
2018-Jul-10 05:30N 47°09' W 004°02'1 1.3
2018-Jul-10 05:00N 47°10' W 004°02'2 4.2
2018-Jul-10 04:30N 47°12' W 004°04'5 4.2
2018-Jul-10 03:26N 47°16' W 004°06'2 4.5
2018-Jul-10 03:00N 47°18' W 004°07'2 4.6
2018-Jul-10 02:30N 47°20' W 004°08'2 4.7
2018-Jul-10 02:00N 47°22' W 004°09'3 4.8
2018-Jul-10 01:29N 47°25' W 004°10'2 4.7
2018-Jul-10 01:00N 47°27' W 004°10'2 4.5
2018-Jul-10 00:28N 47°30' W 004°11'2 4.4
2018-Jul-10 00:00N 47°31' W 004°12'2 4.4
2018-Jul-09 23:27N 47°34' W 004°13'2 4.4
2018-Jul-09 22:56N 47°36' W 004°14'4 4.3
2018-Jul-09 21:54N 47°40' W 004°15'  

Dump ship's entire track history